sensor_id;sensor_type;location;lat;lon;timestamp;pressure;altitude;pressure_sealevel;temperature;humidity
11971;BME280;6045;42.682;23.294;2023-05-01T00:01:48;94613.66;;;13.23;68.69
11971;BME280;6045;42.682;23.294;2023-05-01T00:04:16;94616.38;;;13.07;69.08
11971;BME280;6045;42.682;23.294;2023-05-01T00:06:42;94608.50;;;13.05;69.80
11971;BME280;6045;42.682;23.294;2023-05-01T00:09:09;94612.38;;;13.09;69.81
11971;BME280;6045;42.682;23.294;2023-05-01T00:11:36;94598.63;;;13.06;70.19
11971;BME280;6045;42.682;23.294;2023-05-01T00:14:03;94603.09;;;13.00;70.38
11971;BME280;6045;42.682;23.294;2023-05-01T00:16:31;94609.81;;;12.86;70.63
11971;BME280;6045;42.682;23.294;2023-05-01T00:18:58;94609.16;;;12.79;71.43
11971;BME280;6045;42.682;23.294;2023-05-01T00:21:24;94610.53;;;12.81;71.43
11971;BME280;6045;42.682;23.294;2023-05-01T00:23:52;94600.56;;;12.77;71.39
11971;BME280;6045;42.682;23.294;2023-05-01T00:26:20;94614.69;;;12.72;72.09
11971;BME280;6045;42.682;23.294;2023-05-01T00:28:46;94611.22;;;12.55;71.96
11971;BME280;6045;42.682;23.294;2023-05-01T00:31:13;94616.03;;;12.42;72.55
11971;BME280;6045;42.682;23.294;2023-05-01T00:33:41;94610.66;;;12.42;73.06
11971;BME280;6045;42.682;23.294;2023-05-01T00:36:08;94617.78;;;12.48;73.07
11971;BME280;6045;42.682;23.294;2023-05-01T00:38:35;94607.88;;;12.48;73.40
11971;BME280;6045;42.682;23.294;2023-05-01T00:41:02;94616.56;;;12.55;73.07
11971;BME280;6045;42.682;23.294;2023-05-01T00:43:29;94620.13;;;12.61;73.11
11971;BME280;6045;42.682;23.294;2023-05-01T00:45:56;94629.19;;;12.71;72.81
11971;BME280;6045;42.682;23.294;2023-05-01T00:48:22;94631.69;;;12.78;72.49
11971;BME280;6045;42.682;23.294;2023-05-01T00:50:52;94628.84;;;12.84;72.33
11971;BME280;6045;42.682;23.294;2023-05-01T00:53:20;94632.44;;;12.90;72.07
11971;BME280;6045;42.682;23.294;2023-05-01T00:55:48;94632.75;;;12.93;71.83
11971;BME280;6045;42.682;23.294;2023-05-01T00:58:16;94636.09;;;13.00;71.72
11971;BME280;6045;42.682;23.294;2023-05-01T01:00:43;94637.00;;;13.06;71.73
11971;BME280;6045;42.682;23.294;2023-05-01T01:03:10;94628.72;;;13.08;71.83
11971;BME280;6045;42.682;23.294;2023-05-01T01:05:40;94633.03;;;13.09;71.31
11971;BME280;6045;42.682;23.294;2023-05-01T01:08:19;94634.78;;;13.03;71.02
11971;BME280;6045;42.682;23.294;2023-05-01T01:10:52;94635.22;;;12.95;71.38
11971;BME280;6045;42.682;23.294;2023-05-01T01:13:27;94636.63;;;12.86;71.85
11971;BME280;6045;42.682;23.294;2023-05-01T01:16:04;94641.22;;;12.85;72.28
11971;BME280;6045;42.682;23.294;2023-05-01T01:18:42;94636.31;;;12.82;72.44
11971;BME280;6045;42.682;23.294;2023-05-01T01:21:15;94636.50;;;12.76;72.40
11971;BME280;6045;42.682;23.294;2023-05-01T01:24:05;94638.59;;;12.74;72.76
11971;BME280;6045;42.682;23.294;2023-05-01T01:26:51;94644.91;;;12.68;72.71
11971;BME280;6045;42.682;23.294;2023-05-01T01:29:32;94645.41;;;12.65;73.00
11971;BME280;6045;42.682;23.294;2023-05-01T01:32:13;94644.91;;;12.68;73.20
11971;BME280;6045;42.682;23.294;2023-05-01T01:34:53;94646.56;;;12.69;72.74
11971;BME280;6045;42.682;23.294;2023-05-01T01:37:24;94650.84;;;12.70;72.67
11971;BME280;6045;42.682;23.294;2023-05-01T01:40:01;94657.84;;;12.71;72.94
11971;BME280;6045;42.682;23.294;2023-05-01T01:42:34;94659.72;;;12.70;72.96
11971;BME280;6045;42.682;23.294;2023-05-01T01:45:04;94649.81;;;12.71;72.85
11971;BME280;6045;42.682;23.294;2023-05-01T01:47:35;94640.69;;;12.72;72.95
11971;BME280;6045;42.682;23.294;2023-05-01T01:50:06;94646.06;;;12.72;72.96
11971;BME280;6045;42.682;23.294;2023-05-01T01:52:37;94649.16;;;12.64;72.57
11971;BME280;6045;42.682;23.294;2023-05-01T01:55:08;94643.59;;;12.54;73.19
11971;BME280;6045;42.682;23.294;2023-05-01T01:57:37;94644.06;;;12.51;73.19
11971;BME280;6045;42.682;23.294;2023-05-01T02:00:06;94645.19;;;12.38;73.84
11971;BME280;6045;42.682;23.294;2023-05-01T02:02:36;94644.53;;;12.31;73.84
11971;BME280;6045;42.682;23.294;2023-05-01T02:05:06;94644.47;;;12.14;74.17
11971;BME280;6045;42.682;23.294;2023-05-01T02:07:36;94639.63;;;12.00;74.63
11971;BME280;6045;42.682;23.294;2023-05-01T02:10:06;94632.69;;;11.76;75.27
11971;BME280;6045;42.682;23.294;2023-05-01T02:12:35;94634.13;;;11.55;76.35
11971;BME280;6045;42.682;23.294;2023-05-01T02:15:02;94632.03;;;11.45;76.72
11971;BME280;6045;42.682;23.294;2023-05-01T02:17:34;94641.00;;;11.39;77.34
11971;BME280;6045;42.682;23.294;2023-05-01T02:20:02;94640.78;;;11.29;78.07
11971;BME280;6045;42.682;23.294;2023-05-01T02:22:31;94635.75;;;11.21;78.45
11971;BME280;6045;42.682;23.294;2023-05-01T02:24:59;94636.59;;;11.22;78.45
11971;BME280;6045;42.682;23.294;2023-05-01T02:27:29;94640.53;;;11.31;78.58
11971;BME280;6045;42.682;23.294;2023-05-01T02:29:57;94649.16;;;11.44;78.24
11971;BME280;6045;42.682;23.294;2023-05-01T02:32:24;94649.72;;;11.58;77.28
11971;BME280;6045;42.682;23.294;2023-05-01T02:34:52;94645.63;;;11.67;76.96
11971;BME280;6045;42.682;23.294;2023-05-01T02:37:19;94640.97;;;11.74;76.91
11971;BME280;6045;42.682;23.294;2023-05-01T02:39:48;94644.34;;;11.81;76.31
11971;BME280;6045;42.682;23.294;2023-05-01T02:42:15;94642.34;;;11.88;76.09
11971;BME280;6045;42.682;23.294;2023-05-01T02:44:47;94641.06;;;11.91;76.36
11971;BME280;6045;42.682;23.294;2023-05-01T02:47:19;94648.63;;;11.94;75.97
11971;BME280;6045;42.682;23.294;2023-05-01T02:49:46;94652.19;;;11.99;75.32
11971;BME280;6045;42.682;23.294;2023-05-01T02:52:15;94648.28;;;11.90;75.77
11971;BME280;6045;42.682;23.294;2023-05-01T02:54:43;94650.25;;;11.95;75.86
11971;BME280;6045;42.682;23.294;2023-05-01T02:57:11;94654.00;;;11.94;75.58
11971;BME280;6045;42.682;23.294;2023-05-01T02:59:38;94652.91;;;11.95;75.18
11971;BME280;6045;42.682;23.294;2023-05-01T03:02:05;94658.53;;;11.93;75.74
11971;BME280;6045;42.682;23.294;2023-05-01T03:04:32;94654.78;;;11.94;75.49
11971;BME280;6045;42.682;23.294;2023-05-01T03:06:59;94647.00;;;11.93;75.68
11971;BME280;6045;42.682;23.294;2023-05-01T03:09:26;94652.03;;;11.89;75.75
11971;BME280;6045;42.682;23.294;2023-05-01T03:11:52;94648.16;;;11.85;75.92
11971;BME280;6045;42.682;23.294;2023-05-01T03:14:21;94642.25;;;11.83;76.23
11971;BME280;6045;42.682;23.294;2023-05-01T03:16:48;94659.13;;;11.84;76.58
11971;BME280;6045;42.682;23.294;2023-05-01T03:19:14;94659.44;;;11.87;76.12
11971;BME280;6045;42.682;23.294;2023-05-01T03:21:41;94661.91;;;11.89;75.46
11971;BME280;6045;42.682;23.294;2023-05-01T03:24:08;94648.56;;;11.77;75.88
11971;BME280;6045;42.682;23.294;2023-05-01T03:26:35;94654.13;;;11.76;76.29
11971;BME280;6045;42.682;23.294;2023-05-01T03:29:02;94663.56;;;11.78;76.31
11971;BME280;6045;42.682;23.294;2023-05-01T03:31:30;94668.91;;;11.78;76.44
11971;BME280;6045;42.682;23.294;2023-05-01T03:33:56;94661.81;;;11.72;76.32
11971;BME280;6045;42.682;23.294;2023-05-01T03:36:23;94670.75;;;11.66;77.00
11971;BME280;6045;42.682;23.294;2023-05-01T03:38:51;94674.50;;;11.65;76.88
11971;BME280;6045;42.682;23.294;2023-05-01T03:41:18;94671.25;;;11.63;77.05
11971;BME280;6045;42.682;23.294;2023-05-01T03:43:45;94678.59;;;11.56;77.41
11971;BME280;6045;42.682;23.294;2023-05-01T03:46:12;94684.16;;;11.54;77.33
11971;BME280;6045;42.682;23.294;2023-05-01T03:48:40;94687.66;;;11.55;77.36
11971;BME280;6045;42.682;23.294;2023-05-01T03:51:07;94693.00;;;11.55;77.42
11971;BME280;6045;42.682;23.294;2023-05-01T03:53:34;94694.41;;;11.46;77.82
11971;BME280;6045;42.682;23.294;2023-05-01T03:56:01;94698.72;;;11.47;77.94
11971;BME280;6045;42.682;23.294;2023-05-01T03:58:28;94698.81;;;11.52;77.78
11971;BME280;6045;42.682;23.294;2023-05-01T04:00:55;94696.50;;;11.55;77.94
11971;BME280;6045;42.682;23.294;2023-05-01T04:03:25;94706.03;;;11.63;77.57
11971;BME280;6045;42.682;23.294;2023-05-01T04:05:54;94705.22;;;11.62;77.47
11971;BME280;6045;42.682;23.294;2023-05-01T04:08:20;94706.75;;;11.58;77.82
11971;BME280;6045;42.682;23.294;2023-05-01T04:10:47;94709.88;;;11.55;78.16
11971;BME280;6045;42.682;23.294;2023-05-01T04:13:14;94701.16;;;11.60;78.15
11971;BME280;6045;42.682;23.294;2023-05-01T04:15:43;94700.13;;;11.61;78.53
11971;BME280;6045;42.682;23.294;2023-05-01T04:18:10;94704.75;;;11.65;78.49
11971;BME280;6045;42.682;23.294;2023-05-01T04:20:37;94706.06;;;11.75;78.48
11971;BME280;6045;42.682;23.294;2023-05-01T04:23:06;94700.56;;;11.81;78.46
11971;BME280;6045;42.682;23.294;2023-05-01T04:25:34;94707.47;;;11.77;77.99
11971;BME280;6045;42.682;23.294;2023-05-01T04:28:00;94710.13;;;11.77;78.24
11971;BME280;6045;42.682;23.294;2023-05-01T04:30:29;94706.41;;;11.78;78.67
11971;BME280;6045;42.682;23.294;2023-05-01T04:32:55;94708.84;;;11.91;78.63
11971;BME280;6045;42.682;23.294;2023-05-01T04:35:22;94705.19;;;11.97;78.97
11971;BME280;6045;42.682;23.294;2023-05-01T04:37:49;94701.78;;;12.13;78.56
11971;BME280;6045;42.682;23.294;2023-05-01T04:40:18;94707.06;;;12.36;77.81
11971;BME280;6045;42.682;23.294;2023-05-01T04:42:44;94705.03;;;12.55;77.23
11971;BME280;6045;42.682;23.294;2023-05-01T04:45:11;94706.50;;;12.63;76.21
11971;BME280;6045;42.682;23.294;2023-05-01T04:47:38;94708.00;;;12.70;76.51
11971;BME280;6045;42.682;23.294;2023-05-01T04:50:05;94709.00;;;12.81;76.28
11971;BME280;6045;42.682;23.294;2023-05-01T04:52:32;94707.13;;;12.98;76.00
11971;BME280;6045;42.682;23.294;2023-05-01T04:55:00;94714.22;;;13.04;76.23
11971;BME280;6045;42.682;23.294;2023-05-01T04:57:29;94714.03;;;13.22;75.07
11971;BME280;6045;42.682;23.294;2023-05-01T04:59:56;94713.38;;;13.48;81.30
11971;BME280;6045;42.682;23.294;2023-05-01T05:02:23;94713.28;;;14.36;96.44
11971;BME280;6045;42.682;23.294;2023-05-01T05:04:50;94718.06;;;15.04;95.08
11971;BME280;6045;42.682;23.294;2023-05-01T05:07:18;94725.94;;;15.74;82.68
11971;BME280;6045;42.682;23.294;2023-05-01T05:09:45;94726.59;;;16.38;74.75
11971;BME280;6045;42.682;23.294;2023-05-01T05:12:11;94730.59;;;16.88;75.59
11971;BME280;6045;42.682;23.294;2023-05-01T05:14:40;94726.09;;;17.24;75.01
11971;BME280;6045;42.682;23.294;2023-05-01T05:17:08;94736.97;;;17.59;78.16
11971;BME280;6045;42.682;23.294;2023-05-01T05:19:35;94730.44;;;18.00;77.57
11971;BME280;6045;42.682;23.294;2023-05-01T05:22:02;94728.47;;;18.31;75.28
11971;BME280;6045;42.682;23.294;2023-05-01T05:24:28;94738.19;;;18.47;72.14
11971;BME280;6045;42.682;23.294;2023-05-01T05:26:55;94742.72;;;18.72;67.48
11971;BME280;6045;42.682;23.294;2023-05-01T05:29:22;94751.88;;;18.81;65.79
11971;BME280;6045;42.682;23.294;2023-05-01T05:31:50;94747.28;;;18.86;69.00
11971;BME280;6045;42.682;23.294;2023-05-01T05:34:17;94752.06;;;18.99;69.00
11971;BME280;6045;42.682;23.294;2023-05-01T05:36:44;94752.94;;;18.90;66.79
11971;BME280;6045;42.682;23.294;2023-05-01T05:39:10;94756.13;;;19.02;66.71
11971;BME280;6045;42.682;23.294;2023-05-01T05:41:38;94749.88;;;19.01;62.68
11971;BME280;6045;42.682;23.294;2023-05-01T05:44:04;94752.22;;;19.18;66.26
11971;BME280;6045;42.682;23.294;2023-05-01T05:46:31;94757.03;;;19.36;64.89
11971;BME280;6045;42.682;23.294;2023-05-01T05:48:59;94753.91;;;19.58;63.89
11971;BME280;6045;42.682;23.294;2023-05-01T05:51:28;94755.59;;;19.88;61.92
11971;BME280;6045;42.682;23.294;2023-05-01T05:53:55;94751.56;;;19.80;57.33
11971;BME280;6045;42.682;23.294;2023-05-01T05:56:22;94754.31;;;19.75;57.19
11971;BME280;6045;42.682;23.294;2023-05-01T05:58:49;94757.22;;;19.84;56.62
11971;BME280;6045;42.682;23.294;2023-05-01T06:01:16;94760.31;;;19.28;55.58
11971;BME280;6045;42.682;23.294;2023-05-01T06:03:42;94767.28;;;18.90;56.25
11971;BME280;6045;42.682;23.294;2023-05-01T06:06:10;94772.09;;;18.98;55.05
11971;BME280;6045;42.682;23.294;2023-05-01T06:08:37;94770.91;;;19.20;57.36
11971;BME280;6045;42.682;23.294;2023-05-01T06:11:04;94770.03;;;19.39;56.37
11971;BME280;6045;42.682;23.294;2023-05-01T06:13:31;94767.88;;;19.36;53.69
11971;BME280;6045;42.682;23.294;2023-05-01T06:15:58;94765.25;;;19.16;54.38
11971;BME280;6045;42.682;23.294;2023-05-01T06:18:25;94769.91;;;19.05;55.07
11971;BME280;6045;42.682;23.294;2023-05-01T06:20:54;94769.50;;;19.37;55.25
11971;BME280;6045;42.682;23.294;2023-05-01T06:23:22;94771.53;;;19.55;54.34
11971;BME280;6045;42.682;23.294;2023-05-01T06:25:49;94770.84;;;19.35;55.51
11971;BME280;6045;42.682;23.294;2023-05-01T06:28:16;94775.22;;;19.31;55.55
11971;BME280;6045;42.682;23.294;2023-05-01T06:30:42;94768.66;;;19.42;54.90
11971;BME280;6045;42.682;23.294;2023-05-01T06:33:09;94770.13;;;19.68;54.55
11971;BME280;6045;42.682;23.294;2023-05-01T06:35:37;94767.28;;;19.83;52.96
11971;BME280;6045;42.682;23.294;2023-05-01T06:38:04;94775.22;;;19.74;54.03
11971;BME280;6045;42.682;23.294;2023-05-01T06:40:32;94768.75;;;20.04;52.26
11971;BME280;6045;42.682;23.294;2023-05-01T06:42:59;94774.88;;;20.15;52.00
11971;BME280;6045;42.682;23.294;2023-05-01T06:45:29;94773.72;;;20.21;52.13
11971;BME280;6045;42.682;23.294;2023-05-01T06:47:56;94767.81;;;20.48;51.98
11971;BME280;6045;42.682;23.294;2023-05-01T06:50:23;94773.69;;;20.55;52.18
11971;BME280;6045;42.682;23.294;2023-05-01T06:52:49;94775.28;;;20.84;50.94
11971;BME280;6045;42.682;23.294;2023-05-01T06:55:16;94780.56;;;20.94;50.60
11971;BME280;6045;42.682;23.294;2023-05-01T06:57:44;94776.69;;;20.82;50.66
11971;BME280;6045;42.682;23.294;2023-05-01T07:00:12;94769.06;;;21.07;49.58
11971;BME280;6045;42.682;23.294;2023-05-01T07:02:40;94776.88;;;21.51;48.07
11971;BME280;6045;42.682;23.294;2023-05-01T07:05:07;94775.31;;;22.01;47.13
11971;BME280;6045;42.682;23.294;2023-05-01T07:07:33;94779.78;;;22.43;45.59
11971;BME280;6045;42.682;23.294;2023-05-01T07:10:00;94778.25;;;22.37;45.55
11971;BME280;6045;42.682;23.294;2023-05-01T07:12:27;94774.06;;;22.26;46.35
11971;BME280;6045;42.682;23.294;2023-05-01T07:14:56;94774.31;;;22.43;46.53
11971;BME280;6045;42.682;23.294;2023-05-01T07:17:24;94771.47;;;22.67;45.86
11971;BME280;6045;42.682;23.294;2023-05-01T07:19:51;94783.50;;;22.93;45.68
11971;BME280;6045;42.682;23.294;2023-05-01T07:22:18;94790.69;;;23.02;44.25
11971;BME280;6045;42.682;23.294;2023-05-01T07:24:44;94789.16;;;22.96;44.01
11971;BME280;6045;42.682;23.294;2023-05-01T07:27:11;94781.59;;;23.07;44.27
11971;BME280;6045;42.682;23.294;2023-05-01T07:29:38;94789.06;;;23.15;44.66
11971;BME280;6045;42.682;23.294;2023-05-01T07:32:06;94791.00;;;23.14;43.81
11971;BME280;6045;42.682;23.294;2023-05-01T07:34:33;94786.94;;;23.39;42.99
11971;BME280;6045;42.682;23.294;2023-05-01T07:37:00;94782.88;;;23.86;40.78
11971;BME280;6045;42.682;23.294;2023-05-01T07:39:32;94789.41;;;23.63;42.84
11971;BME280;6045;42.682;23.294;2023-05-01T07:42:09;94793.03;;;23.72;42.84
11971;BME280;6045;42.682;23.294;2023-05-01T07:44:36;94786.41;;;23.64;41.22
11971;BME280;6045;42.682;23.294;2023-05-01T07:47:03;94779.38;;;23.72;40.71
11971;BME280;6045;42.682;23.294;2023-05-01T07:49:38;94783.03;;;24.03;40.97
11971;BME280;6045;42.682;23.294;2023-05-01T07:52:04;94789.91;;;24.01;41.09
11971;BME280;6045;42.682;23.294;2023-05-01T07:54:33;94781.19;;;24.12;41.83
11971;BME280;6045;42.682;23.294;2023-05-01T07:56:59;94787.47;;;24.13;41.67
11971;BME280;6045;42.682;23.294;2023-05-01T07:59:28;94782.75;;;24.27;41.74
11971;BME280;6045;42.682;23.294;2023-05-01T08:01:55;94781.66;;;24.28;40.83
11971;BME280;6045;42.682;23.294;2023-05-01T08:04:22;94780.09;;;24.66;38.72
11971;BME280;6045;42.682;23.294;2023-05-01T08:06:50;94779.22;;;24.79;40.37
11971;BME280;6045;42.682;23.294;2023-05-01T08:09:17;94780.81;;;24.80;40.48
11971;BME280;6045;42.682;23.294;2023-05-01T08:11:43;94779.41;;;24.83;38.86
11971;BME280;6045;42.682;23.294;2023-05-01T08:14:10;94781.50;;;24.64;38.90
11971;BME280;6045;42.682;23.294;2023-05-01T08:16:37;94785.25;;;24.68;40.67
11971;BME280;6045;42.682;23.294;2023-05-01T08:19:04;94780.41;;;24.95;39.87
11971;BME280;6045;42.682;23.294;2023-05-01T08:21:30;94774.94;;;24.87;39.05
11971;BME280;6045;42.682;23.294;2023-05-01T08:23:59;94779.75;;;24.90;38.01
11971;BME280;6045;42.682;23.294;2023-05-01T08:26:25;94785.22;;;25.38;37.06
11971;BME280;6045;42.682;23.294;2023-05-01T08:28:52;94776.47;;;25.66;36.65
11971;BME280;6045;42.682;23.294;2023-05-01T08:31:19;94780.47;;;25.52;38.83
11971;BME280;6045;42.682;23.294;2023-05-01T08:33:47;94778.78;;;24.86;36.95
11971;BME280;6045;42.682;23.294;2023-05-01T08:36:13;94775.31;;;24.05;38.11
11971;BME280;6045;42.682;23.294;2023-05-01T08:38:40;94778.22;;;24.44;37.76
11971;BME280;6045;42.682;23.294;2023-05-01T08:41:08;94774.59;;;24.88;38.14
11971;BME280;6045;42.682;23.294;2023-05-01T08:43:35;94775.88;;;25.30;35.87
11971;BME280;6045;42.682;23.294;2023-05-01T08:46:05;94776.44;;;25.49;35.99
11971;BME280;6045;42.682;23.294;2023-05-01T08:48:35;94770.81;;;25.63;36.56
11971;BME280;6045;42.682;23.294;2023-05-01T08:51:04;94766.50;;;26.05;32.90
11971;BME280;6045;42.682;23.294;2023-05-01T08:53:32;94774.53;;;25.75;33.55
11971;BME280;6045;42.682;23.294;2023-05-01T08:56:00;94772.31;;;25.21;34.57
11971;BME280;6045;42.682;23.294;2023-05-01T08:58:32;94767.88;;;25.51;33.88
11971;BME280;6045;42.682;23.294;2023-05-01T09:01:01;94757.81;;;25.86;33.29
11971;BME280;6045;42.682;23.294;2023-05-01T09:03:30;94761.81;;;25.97;32.88
11971;BME280;6045;42.682;23.294;2023-05-01T09:05:58;94770.34;;;26.04;32.93
11971;BME280;6045;42.682;23.294;2023-05-01T09:08:25;94770.81;;;25.89;34.11
11971;BME280;6045;42.682;23.294;2023-05-01T09:10:53;94760.84;;;25.75;35.54
11971;BME280;6045;42.682;23.294;2023-05-01T09:13:21;94765.38;;;25.71;34.78
11971;BME280;6045;42.682;23.294;2023-05-01T09:15:52;94769.88;;;25.76;35.63
11971;BME280;6045;42.682;23.294;2023-05-01T09:18:18;94755.91;;;25.30;35.34
11971;BME280;6045;42.682;23.294;2023-05-01T09:20:46;94761.84;;;25.23;34.86
11971;BME280;6045;42.682;23.294;2023-05-01T09:23:12;94764.25;;;25.16;33.28
11971;BME280;6045;42.682;23.294;2023-05-01T09:25:39;94764.22;;;25.07;37.19
11971;BME280;6045;42.682;23.294;2023-05-01T09:28:06;94773.47;;;25.37;32.81
11971;BME280;6045;42.682;23.294;2023-05-01T09:30:34;94766.28;;;25.50;32.97
11971;BME280;6045;42.682;23.294;2023-05-01T09:33:10;94771.94;;;25.70;34.54
11971;BME280;6045;42.682;23.294;2023-05-01T09:35:51;94764.56;;;25.97;32.84
11971;BME280;6045;42.682;23.294;2023-05-01T09:38:20;94773.56;;;26.06;33.32
11971;BME280;6045;42.682;23.294;2023-05-01T09:40:47;94766.16;;;26.06;31.71
11971;BME280;6045;42.682;23.294;2023-05-01T09:43:23;94765.22;;;26.28;32.22
11971;BME280;6045;42.682;23.294;2023-05-01T09:45:58;94762.22;;;26.67;31.92
11971;BME280;6045;42.682;23.294;2023-05-01T09:48:27;94761.84;;;26.94;30.27
11971;BME280;6045;42.682;23.294;2023-05-01T09:50:53;94769.53;;;27.09;29.76
11971;BME280;6045;42.682;23.294;2023-05-01T09:53:32;94758.03;;;26.78;31.27
11971;BME280;6045;42.682;23.294;2023-05-01T09:56:02;94750.19;;;27.44;29.18
11971;BME280;6045;42.682;23.294;2023-05-01T09:58:29;94749.78;;;27.25;31.51
11971;BME280;6045;42.682;23.294;2023-05-01T10:00:56;94745.22;;;27.29;32.23
11971;BME280;6045;42.682;23.294;2023-05-01T10:03:22;94742.22;;;27.51;33.03
11971;BME280;6045;42.682;23.294;2023-05-01T10:05:51;94744.44;;;27.57;32.94
11971;BME280;6045;42.682;23.294;2023-05-01T10:08:21;94738.25;;;27.31;33.21
11971;BME280;6045;42.682;23.294;2023-05-01T10:11:01;94734.22;;;27.29;33.59
11971;BME280;6045;42.682;23.294;2023-05-01T10:13:28;94743.09;;;27.63;31.30
11971;BME280;6045;42.682;23.294;2023-05-01T10:15:56;94740.66;;;27.03;32.52
11971;BME280;6045;42.682;23.294;2023-05-01T10:18:26;94743.25;;;26.45;30.69
11971;BME280;6045;42.682;23.294;2023-05-01T10:20:54;94739.56;;;26.24;31.11
11971;BME280;6045;42.682;23.294;2023-05-01T10:23:21;94724.91;;;25.94;31.42
11971;BME280;6045;42.682;23.294;2023-05-01T10:25:51;94742.31;;;26.24;32.31
11971;BME280;6045;42.682;23.294;2023-05-01T10:28:19;94741.34;;;26.20;35.50
11971;BME280;6045;42.682;23.294;2023-05-01T10:30:47;94737.69;;;26.79;31.35
11971;BME280;6045;42.682;23.294;2023-05-01T10:33:14;94737.81;;;26.83;32.24
11971;BME280;6045;42.682;23.294;2023-05-01T10:35:44;94735.59;;;26.68;32.68
11971;BME280;6045;42.682;23.294;2023-05-01T10:38:21;94742.81;;;26.17;31.83
11971;BME280;6045;42.682;23.294;2023-05-01T10:40:49;94737.31;;;25.74;31.19
11971;BME280;6045;42.682;23.294;2023-05-01T10:43:21;94742.00;;;25.83;32.74
11971;BME280;6045;42.682;23.294;2023-05-01T10:45:51;94744.19;;;25.38;35.68
11971;BME280;6045;42.682;23.294;2023-05-01T10:51:22;94740.81;;;24.62;34.87
11971;BME280;6045;42.682;23.294;2023-05-01T10:54:22;94737.72;;;24.24;36.90
11971;BME280;6045;42.682;23.294;2023-05-01T10:56:54;94745.13;;;24.85;35.73
11971;BME280;6045;42.682;23.294;2023-05-01T10:59:23;94740.34;;;25.47;33.43
11971;BME280;6045;42.682;23.294;2023-05-01T11:01:50;94741.63;;;25.41;32.87
11971;BME280;6045;42.682;23.294;2023-05-01T11:04:46;94734.66;;;24.79;33.92
11971;BME280;6045;42.682;23.294;2023-05-01T11:07:16;94742.09;;;24.25;34.01
11971;BME280;6045;42.682;23.294;2023-05-01T11:09:45;94738.03;;;24.01;34.75
11971;BME280;6045;42.682;23.294;2023-05-01T11:12:50;94735.97;;;23.62;36.96
11971;BME280;6045;42.682;23.294;2023-05-01T11:15:28;94732.84;;;23.55;39.12
11971;BME280;6045;42.682;23.294;2023-05-01T11:17:58;94735.59;;;23.55;38.16
11971;BME280;6045;42.682;23.294;2023-05-01T11:20:44;94728.06;;;24.49;34.63
11971;BME280;6045;42.682;23.294;2023-05-01T11:23:16;94735.25;;;24.76;33.20
11971;BME280;6045;42.682;23.294;2023-05-01T11:25:46;94740.94;;;24.26;34.28
11971;BME280;6045;42.682;23.294;2023-05-01T11:28:17;94739.44;;;23.76;37.39
11971;BME280;6045;42.682;23.294;2023-05-01T11:30:47;94736.97;;;23.88;34.76
11971;BME280;6045;42.682;23.294;2023-05-01T11:33:21;94742.16;;;24.73;34.40
11971;BME280;6045;42.682;23.294;2023-05-01T11:36:00;94742.09;;;25.43;34.35
11971;BME280;6045;42.682;23.294;2023-05-01T11:38:29;94743.44;;;25.63;34.31
11971;BME280;6045;42.682;23.294;2023-05-01T11:41:01;94734.91;;;25.81;31.98
11971;BME280;6045;42.682;23.294;2023-05-01T11:43:29;94728.47;;;25.95;31.00
11971;BME280;6045;42.682;23.294;2023-05-01T11:45:56;94725.34;;;24.49;32.45
11971;BME280;6045;42.682;23.294;2023-05-01T11:48:28;94723.19;;;24.37;32.84
11971;BME280;6045;42.682;23.294;2023-05-01T11:50:55;94726.69;;;24.99;32.97
11971;BME280;6045;42.682;23.294;2023-05-01T11:53:22;94720.78;;;25.23;32.18
11971;BME280;6045;42.682;23.294;2023-05-01T11:55:49;94726.59;;;25.22;33.03
11971;BME280;6045;42.682;23.294;2023-05-01T11:58:17;94715.47;;;25.18;32.26
11971;BME280;6045;42.682;23.294;2023-05-01T12:00:56;94725.66;;;25.35;33.60
11971;BME280;6045;42.682;23.294;2023-05-01T12:03:23;94726.31;;;25.40;33.04
11971;BME280;6045;42.682;23.294;2023-05-01T12:05:50;94723.84;;;24.74;32.22
11971;BME280;6045;42.682;23.294;2023-05-01T12:08:18;94721.41;;;24.11;32.94
11971;BME280;6045;42.682;23.294;2023-05-01T12:10:50;94719.47;;;23.67;34.39
11971;BME280;6045;42.682;23.294;2023-05-01T12:13:23;94725.25;;;22.62;36.34
11971;BME280;6045;42.682;23.294;2023-05-01T12:15:58;94727.06;;;22.07;37.17
11971;BME280;6045;42.682;23.294;2023-05-01T12:18:25;94735.00;;;22.03;37.52
11971;BME280;6045;42.682;23.294;2023-05-01T12:20:53;94735.84;;;21.66;37.79
11971;BME280;6045;42.682;23.294;2023-05-01T12:23:29;94731.28;;;21.43;38.83
11971;BME280;6045;42.682;23.294;2023-05-01T12:25:57;94742.75;;;21.22;37.43
11971;BME280;6045;42.682;23.294;2023-05-01T12:28:25;94731.72;;;21.13;37.35
11971;BME280;6045;42.682;23.294;2023-05-01T12:30:52;94738.94;;;20.99;37.71
11971;BME280;6045;42.682;23.294;2023-05-01T12:33:22;94736.69;;;20.82;38.92
11971;BME280;6045;42.682;23.294;2023-05-01T12:35:49;94742.94;;;21.06;38.26
11971;BME280;6045;42.682;23.294;2023-05-01T12:38:17;94732.09;;;21.44;37.76
11971;BME280;6045;42.682;23.294;2023-05-01T12:40:51;94735.94;;;21.61;38.92
11971;BME280;6045;42.682;23.294;2023-05-01T12:43:19;94742.75;;;21.77;40.20
11971;BME280;6045;42.682;23.294;2023-05-01T12:45:51;94749.16;;;21.49;36.31
11971;BME280;6045;42.682;23.294;2023-05-01T12:48:18;94744.53;;;21.31;37.44
11971;BME280;6045;42.682;23.294;2023-05-01T12:50:45;94735.06;;;21.29;37.00
11971;BME280;6045;42.682;23.294;2023-05-01T12:53:18;94729.81;;;21.32;40.30
11971;BME280;6045;42.682;23.294;2023-05-01T12:55:48;94726.16;;;21.42;41.39
11971;BME280;6045;42.682;23.294;2023-05-01T12:58:15;94734.22;;;21.65;39.64
11971;BME280;6045;42.682;23.294;2023-05-01T13:00:49;94725.69;;;21.53;38.53
11971;BME280;6045;42.682;23.294;2023-05-01T13:03:22;94726.81;;;21.71;41.96
11971;BME280;6045;42.682;23.294;2023-05-01T13:05:50;94726.38;;;21.45;38.29
11971;BME280;6045;42.682;23.294;2023-05-01T13:08:31;94741.56;;;21.09;39.99
11971;BME280;6045;42.682;23.294;2023-05-01T13:11:00;94743.97;;;20.87;41.97
11971;BME280;6045;42.682;23.294;2023-05-01T13:13:29;94731.88;;;20.56;41.70